Logo AVAMET
Benvolgut visitant, si us plau, ingressa Recuperar contrasenya
AVAMET paisatges

la Serra d′en Galceran

Dades diàries. Acumulats / Últims 30 dies disponibles

Data Temperatura (°C) Humitat rel. (%) Pressió rel. (hPa) Vent (km/h) Precipitació
Mínima Mitjana Màxima Amplitud
tèrmica
Mínima Mitjana Màxima Mínima Mitjana Màxima Predom. Mitjana Ràfega
màxima
Total
(mm)
Índex-n
Mínima Mitjana Màxima Mínima Mitjana Màxima n
0 a 1
P0 max
mm 5'
Dades mensuals acumulades fins l'últim dia disponible
05/2020 9,7 14,1 19,1 17,5 13,7 21,7 28,4 18,7 32 67 97 1.002 1.015 1.027   5,3 51,5 57,0
Dades anuals acumulades fins l'últim dia disponible
2020 -0,9 8,6 19,1 11,6 3,4 15,4 28,4 29,3 17 70 98 992 1.019 1.033   8,0 107,8 727,8
Últims 30 dies disponibles
25-05-2020 13,7     15,5     20,3 6,6 60 81 94 1.024 1.025 1.027 SW 2,6 33,8 1,8
24-05-2020 14,1     16,6     20,7 6,6 74 85 92 1.025 1.026 1.027 NE 5,6 32,2 0,0
23-05-2020 17,8     22,1     26,3 8,5 32 56 87 1.022 1.023 1.025 SW 1,8 20,9 0,0
22-05-2020 19,1     23,4     28,4 9,3 38 51 73 1.019 1.021 1.023 NE 2,6 22,5 0,0
21-05-2020 19,1     22,7     26,1 7,0 39 50 58 1.016 1.018 1.020 SW 3,2 20,9 0,0
20-05-2020 17,3     21,7     25,3 8,0 41 52 62 1.014 1.015 1.016 SW 5,1 35,4 0,0
19-05-2020 15,6     19,9     24,9 9,3 43 55 76 1.015 1.017 1.020 NNW 7,2 35,4 0,0
18-05-2020 12,9     17,3     22,0 9,1 47 64 77 1.018 1.020 1.022 NE 3,7 24,1 0,0
17-05-2020 10,6     14,4     19,2 8,6 64 74 88 1.018 1.020 1.022 N 12,1 49,9 0,4
16-05-2020 9,8     12,9     17,3 7,5 62 82 93 1.014 1.016 1.019 N 15,4 46,7 0,4
15-05-2020 10,1     12,6     16,2 6,1 68 80 93 1.009 1.012 1.015 NE 6,0 48,3 1,6 0,48 0,80
14-05-2020 9,7     11,4     13,7 4,0 65 85 95 1.003 1.004 1.009 E 3,2 20,9 18,2 0,42 1,80
13-05-2020 10,0     13,8     18,7 8,7 61 77 96 1.003 1.004 1.006 NE 3,7 24,1 3,6
12-05-2020 11,8     14,2     16,9 5,1 59 76 94 1.005 1.008 1.010 NE 9,0 35,4 2,2 0,34 0,40
11-05-2020 11,7     16,6     21,6 9,9 37 54 85 1.003 1.006 1.009 W 6,8 29,0 0,0
10-05-2020 11,0     12,9     16,3 5,3 73 90 97 1.002 1.004 1.009 SW 5,0 41,8 28,8 0,49 3,90
09-05-2020 12,3     14,5     18,0 5,7 77 90 97 1.008 1.011 1.015 SW 2,6 19,3 0,0
08-05-2020 11,6     15,9     21,2 9,6 53 76 94 1.014 1.016 1.018 ENE 6,1 38,6 0,0
07-05-2020 14,8     18,2     22,7 7,9 34 61 78 1.017 1.017 1.019 E 3,9 27,4 0,0
06-05-2020 17,0     19,4     23,6 6,6 45 63 76 1.013 1.015 1.017 NE 4,3 29,0 0,0
05-05-2020 17,1     20,3     24,0 6,9 49 61 74 1.011 1.013 1.015 NE 2,7 22,5 0,0
04-05-2020 16,7     20,4     24,7 8,0 47 55 64 1.013 1.014 1.016 SW 2,6 20,9 0,0
03-05-2020 17,2     20,4     23,6 6,4 53 59 68 1.015 1.016 1.018 SE 4,5 24,1 0,0
02-05-2020 16,6     20,9     25,2 8,6 44 54 66 1.015 1.016 1.018 SW 5,3 30,6 0,0
01-05-2020 13,8     19,3     24,6 10,8 40 52 63 1.014 1.015 1.017 NW 7,2 51,5 0,0
30-04-2020 13,7     17,0     21,7 8,0 39 51 62 1.012 1.013 1.016 OSO 6,8 35,4 0,0
29-04-2020 10,7     14,9     19,2 8,5 45 57 76 1.013 1.015 1.016 SW 9,0 45,1 0,0
28-04-2020 10,3     13,6     17,3 7,0 52 64 79 1.011 1.012 1.015 NW 6,1 33,8 0,0
27-04-2020 10,1     12,8     17,1 7,0 77 90 95 1.009 1.010 1.012 NE 3,2 30,6 33,2 0,54 6,40
26-04-2020 10,5     14,1     17,8 7,3 65 79 93 1.009 1.010 1.012 E 2,3 19,3 0,0
Últims 13 mesos disponibles
04/2020 5,2 8,9 13,7 11,5 9,9 15,4 21,7 16,5 51 78 94 1.004 1.015 1.026 NE 6,2 69,2 150,3
03/2020 1,7 6,7 15,5 9,8 5,1 13,2 23,4 21,7 45 72 96 1.003 1.016 1.027 NE 12,5 107,8 276,6
02/2020 4,9 8,8 16,2 12,3 9,7 16,3 22,2 17,3 33 62 86 1.011 1.024 1.031 SW 6,8 93,3 0,0
01/2020 -0,9 5,5 11,1 8,3 3,4 11,8 16,6 17,5 47 70 97 1.018 1.025 1.031 E 8,4 99,8 241,5
12/2019 2,8 7,9 13,2 10,7 7,2 13,7 20,3 17,5 35 67 96 1.000 1.018 1.032 E 10,3 132,0 112,9
11/2019 2,9 7,9 15,7 10,5 8,1 13,9 22,3 19,4 52 61 81 995 1.009 1.017 NW 13,1 125,5 8,8
10/2019 8,1 13,5 17,8 16,5 12,3 20,4 28,1 20,0 47 69 89 1.006 1.015 1.021 SW 7,0 88,5 41,8
09/2019 9,8 16,0 19,4 19,4 16,5 23,4 27,9 18,1 51 70 90 1.009 1.017 1.026 ENE 9,5 83,7 66,4
08/2019 14,0 19,1 25,2 22,8 20,8 27,0 33,8 19,8 41 66 85 1.009 1.015 1.020 NE 4,8 82,1 29,2
07/2019 15,9 20,0 24,2 24,0 22,4 28,4 33,0 17,1 32 55 72 1.004 1.013 1.020 SW 5,2 96,6 27,5
06/2019 7,7 15,8 26,0 20,2 15,2 24,7 36,7 29,0 17 54 80 1.007 1.014 1.021 ENE 5,8 62,8 3,6
05/2019 6,1 10,4 16,1 14,7 12,6 19,3 24,0 17,9 32 61 83 1.004 1.014 1.023 SW 10,2 91,7 22,1
04/2019 2,3 7,4 12,3 10,8 10,4 15,0 21,9 19,6 39 67 92 998 1.012 1.024 NW 11,8 82,1 113,8
Tots els anys disponibles
2019 -0,5 11,5 26,0 14,9 4,5 18,9 36,7 37,2 17 61 96 991 1.016 1.033 SW 9,8 140,0 440,2
2018 -1,2 11,5 25,5 14,7 1,9 18,6 32,7 33,9 NW 9,3 125,5 823,6
2017
Temperatura (°C)
Humitat relativa (%)
Velocitat del vent i ràfega màxima (km/h)
Direcció del vent (°)
Pressió (hPa)
Precipitació (mm)
Nota sobre les dades: s'avisa a l'usuari de la provisionalitat i no oficialitat d'aquestes dades
Logo AVAMET blanc
Web allotjada a Sollutia
Llicència de Creative CommonsLa web d'AVAMET i els seus continguts estan subjectes a una llicència de
Reconeixement - No Comercial - Compartir igual
Últimes estacions:  Chera (Ajuntament soci), Benifaió (Inforatge), Altea - Com. Regants (Soci) - - -